IN-0042 weather

Shillong Indian Army Helipad
Shillong, Meghalaya, India

Public forecast

Using degrees Celsius for public forecast. Weather courtesy of forecast.io.

Closest aviation weather report (METAR) to Shillong Indian Army Helipad

Closest report is Lokpriya Gopinath Bordoloi International Airport, 37.3 nm (69.1 km) NNW. Retrieved 2020/02/23 13:30 UTC (22 minutes ago):

VEGT 231330Z 00000KT 2500 HZ FEW018 SCT100 23/18 Q1014 NOSIG

Closest aviation forecast (TAF) to Shillong Indian Army Helipad

Forecast is more than 12 hours old.

Closest forecast is Lokpriya Gopinath Bordoloi International Airport, 37.3 nm (69.1 km) NNW. Retrieved 2016/03/24 00:45 UTC (4 years ago):

TAF VEGT 242300Z 2500/2606 00000KT 2000 BR FEW020 BECMG 2503/2506 05008KT 4000 HZ BECMG 2506/2509 5000 HZ BECMG 2512/2514 00000KT 4000 HZ FEW020 SCT100 BECMG 2515/2518 2500 HZ BECMG 2603/2606 05008KT 4000 HZ FEW020=